sensor_id;sensor_type;location;lat;lon;timestamp;P1;durP1;ratioP1;P2;durP2;ratioP2
44434;SDS011;30138;20.964;105.830;2023-08-24T00:02:17;2.42;;;2.22;;
44434;SDS011;30138;20.964;105.830;2023-08-24T00:07:26;2.70;;;2.50;;
44434;SDS011;30138;20.964;105.830;2023-08-24T00:12:33;2.83;;;2.45;;
44434;SDS011;30138;20.964;105.830;2023-08-24T00:17:40;3.38;;;2.08;;
44434;SDS011;30138;20.964;105.830;2023-08-24T00:22:48;2.78;;;2.53;;
44434;SDS011;30138;20.964;105.830;2023-08-24T00:27:54;3.08;;;2.13;;
44434;SDS011;30138;20.964;105.830;2023-08-24T00:33:01;2.80;;;2.50;;
44434;SDS011;30138;20.964;105.830;2023-08-24T00:38:09;2.38;;;2.17;;
44434;SDS011;30138;20.964;105.830;2023-08-24T00:43:15;2.33;;;2.13;;
44434;SDS011;30138;20.964;105.830;2023-08-24T00:48:25;2.70;;;2.40;;
44434;SDS011;30138;20.964;105.830;2023-08-24T00:53:33;2.25;;;1.98;;
44434;SDS011;30138;20.964;105.830;2023-08-24T00:58:41;4.38;;;3.50;;
44434;SDS011;30138;20.964;105.830;2023-08-24T01:03:47;6.45;;;5.55;;
44434;SDS011;30138;20.964;105.830;2023-08-24T01:08:55;7.65;;;5.28;;
44434;SDS011;30138;20.964;105.830;2023-08-24T01:14:04;10.35;;;6.93;;
44434;SDS011;30138;20.964;105.830;2023-08-24T01:19:25;11.85;;;7.80;;
44434;SDS011;30138;20.964;105.830;2023-08-24T01:24:46;14.65;;;8.93;;
44434;SDS011;30138;20.964;105.830;2023-08-24T01:30:01;12.77;;;9.77;;
44434;SDS011;30138;20.964;105.830;2023-08-24T01:35:09;17.15;;;10.88;;
44434;SDS011;30138;20.964;105.830;2023-08-24T01:40:16;15.57;;;11.48;;
44434;SDS011;30138;20.964;105.830;2023-08-24T01:45:29;17.08;;;12.38;;
44434;SDS011;30138;20.964;105.830;2023-08-24T01:50:37;16.17;;;12.50;;
44434;SDS011;30138;20.964;105.830;2023-08-24T01:55:44;18.42;;;12.57;;
44434;SDS011;30138;20.964;105.830;2023-08-24T02:00:52;23.15;;;14.38;;
44434;SDS011;30138;20.964;105.830;2023-08-24T02:06:01;22.27;;;14.32;;
44434;SDS011;30138;20.964;105.830;2023-08-24T02:11:13;21.55;;;15.27;;
44434;SDS011;30138;20.964;105.830;2023-08-24T02:16:22;21.88;;;15.00;;
44434;SDS011;30138;20.964;105.830;2023-08-24T02:21:28;25.63;;;16.17;;
44434;SDS011;30138;20.964;105.830;2023-08-24T02:26:34;20.25;;;15.70;;
44434;SDS011;30138;20.964;105.830;2023-08-24T02:31:42;21.17;;;15.55;;
44434;SDS011;30138;20.964;105.830;2023-08-24T02:36:48;24.83;;;16.75;;
44434;SDS011;30138;20.964;105.830;2023-08-24T02:41:55;22.38;;;17.55;;
44434;SDS011;30138;20.964;105.830;2023-08-24T02:47:03;22.98;;;18.13;;
44434;SDS011;30138;20.964;105.830;2023-08-24T02:52:10;23.25;;;16.75;;
44434;SDS011;30138;20.964;105.830;2023-08-24T02:57:17;24.23;;;18.00;;
44434;SDS011;30138;20.964;105.830;2023-08-24T03:02:25;25.60;;;17.65;;
44434;SDS011;30138;20.964;105.830;2023-08-24T03:07:31;26.88;;;18.10;;
44434;SDS011;30138;20.964;105.830;2023-08-24T03:12:39;22.80;;;17.65;;
44434;SDS011;30138;20.964;105.830;2023-08-24T03:17:47;23.67;;;18.13;;
44434;SDS011;30138;20.964;105.830;2023-08-24T03:22:53;24.15;;;18.20;;
44434;SDS011;30138;20.964;105.830;2023-08-24T03:28:00;24.33;;;18.55;;
44434;SDS011;30138;20.964;105.830;2023-08-24T03:33:08;27.25;;;19.50;;
44434;SDS011;30138;20.964;105.830;2023-08-24T03:38:15;26.17;;;19.10;;
44434;SDS011;30138;20.964;105.830;2023-08-24T03:43:22;27.23;;;19.30;;
44434;SDS011;30138;20.964;105.830;2023-08-24T03:48:31;24.48;;;18.80;;
44434;SDS011;30138;20.964;105.830;2023-08-24T03:53:38;27.60;;;19.90;;
44434;SDS011;30138;20.964;105.830;2023-08-24T03:58:46;28.92;;;19.65;;
44434;SDS011;30138;20.964;105.830;2023-08-24T04:03:54;31.15;;;20.52;;
44434;SDS011;30138;20.964;105.830;2023-08-24T04:09:01;27.00;;;20.70;;
44434;SDS011;30138;20.964;105.830;2023-08-24T04:14:11;31.50;;;21.92;;
44434;SDS011;30138;20.964;105.830;2023-08-24T04:19:19;30.65;;;22.10;;
44434;SDS011;30138;20.964;105.830;2023-08-24T04:24:26;28.92;;;21.98;;
44434;SDS011;30138;20.964;105.830;2023-08-24T04:29:32;31.95;;;23.20;;
44434;SDS011;30138;20.964;105.830;2023-08-24T04:34:41;30.63;;;22.42;;
44434;SDS011;30138;20.964;105.830;2023-08-24T04:39:47;30.92;;;23.45;;
44434;SDS011;30138;20.964;105.830;2023-08-24T04:44:56;35.85;;;24.38;;
44434;SDS011;30138;20.964;105.830;2023-08-24T04:50:05;31.38;;;24.20;;
44434;SDS011;30138;20.964;105.830;2023-08-24T04:55:13;31.55;;;24.15;;
44434;SDS011;30138;20.964;105.830;2023-08-24T05:00:19;33.13;;;25.73;;
44434;SDS011;30138;20.964;105.830;2023-08-24T05:05:30;31.42;;;24.77;;
44434;SDS011;30138;20.964;105.830;2023-08-24T05:10:36;34.67;;;24.55;;
44434;SDS011;30138;20.964;105.830;2023-08-24T05:15:43;33.58;;;24.92;;
44434;SDS011;30138;20.964;105.830;2023-08-24T05:20:51;34.88;;;25.55;;
44434;SDS011;30138;20.964;105.830;2023-08-24T05:31:06;32.13;;;24.10;;
44434;SDS011;30138;20.964;105.830;2023-08-24T05:36:14;35.22;;;25.05;;
44434;SDS011;30138;20.964;105.830;2023-08-24T05:41:20;32.03;;;25.95;;
44434;SDS011;30138;20.964;105.830;2023-08-24T05:46:27;31.65;;;25.75;;
44434;SDS011;30138;20.964;105.830;2023-08-24T05:51:39;34.80;;;25.92;;
44434;SDS011;30138;20.964;105.830;2023-08-24T05:56:46;34.90;;;26.25;;
44434;SDS011;30138;20.964;105.830;2023-08-24T06:01:53;33.80;;;25.33;;
44434;SDS011;30138;20.964;105.830;2023-08-24T06:07:02;34.67;;;24.85;;
44434;SDS011;30138;20.964;105.830;2023-08-24T06:12:08;29.17;;;24.15;;
44434;SDS011;30138;20.964;105.830;2023-08-24T06:17:15;30.52;;;25.23;;
44434;SDS011;30138;20.964;105.830;2023-08-24T06:22:23;31.05;;;24.48;;
44434;SDS011;30138;20.964;105.830;2023-08-24T06:27:30;30.05;;;24.00;;
44434;SDS011;30138;20.964;105.830;2023-08-24T06:32:39;28.65;;;24.10;;
44434;SDS011;30138;20.964;105.830;2023-08-24T06:37:47;30.42;;;23.38;;
44434;SDS011;30138;20.964;105.830;2023-08-24T06:42:53;30.15;;;24.48;;
44434;SDS011;30138;20.964;105.830;2023-08-24T06:48:00;27.60;;;23.52;;
44434;SDS011;30138;20.964;105.830;2023-08-24T06:53:10;29.30;;;23.25;;
44434;SDS011;30138;20.964;105.830;2023-08-24T07:03:25;28.10;;;22.63;;
44434;SDS011;30138;20.964;105.830;2023-08-24T07:08:35;28.10;;;22.63;;
44434;SDS011;30138;20.964;105.830;2023-08-24T07:13:45;28.52;;;23.00;;
44434;SDS011;30138;20.964;105.830;2023-08-24T07:18:52;29.17;;;23.05;;
44434;SDS011;30138;20.964;105.830;2023-08-24T07:24:00;31.02;;;22.80;;
44434;SDS011;30138;20.964;105.830;2023-08-24T07:29:07;28.35;;;23.05;;
44434;SDS011;30138;20.964;105.830;2023-08-24T07:34:14;28.70;;;23.15;;
44434;SDS011;30138;20.964;105.830;2023-08-24T07:39:22;28.65;;;22.83;;
44434;SDS011;30138;20.964;105.830;2023-08-24T07:44:28;27.92;;;23.75;;
44434;SDS011;30138;20.964;105.830;2023-08-24T07:49:34;26.58;;;21.90;;
44434;SDS011;30138;20.964;105.830;2023-08-24T07:54:47;29.30;;;24.27;;
44434;SDS011;30138;20.964;105.830;2023-08-24T07:59:53;28.08;;;23.30;;
44434;SDS011;30138;20.964;105.830;2023-08-24T08:04:59;28.70;;;23.17;;
44434;SDS011;30138;20.964;105.830;2023-08-24T08:10:08;25.98;;;22.65;;
44434;SDS011;30138;20.964;105.830;2023-08-24T08:15:14;28.73;;;23.35;;
44434;SDS011;30138;20.964;105.830;2023-08-24T08:20:20;28.60;;;23.48;;
44434;SDS011;30138;20.964;105.830;2023-08-24T08:25:29;27.90;;;23.88;;
44434;SDS011;30138;20.964;105.830;2023-08-24T08:30:34;28.05;;;24.08;;
44434;SDS011;30138;20.964;105.830;2023-08-24T08:35:40;27.58;;;24.58;;
44434;SDS011;30138;20.964;105.830;2023-08-24T08:40:49;29.27;;;24.45;;
44434;SDS011;30138;20.964;105.830;2023-08-24T08:45:56;27.35;;;23.92;;
44434;SDS011;30138;20.964;105.830;2023-08-24T08:51:03;30.35;;;24.15;;
44434;SDS011;30138;20.964;105.830;2023-08-24T08:56:12;28.95;;;24.42;;
44434;SDS011;30138;20.964;105.830;2023-08-24T09:01:20;28.65;;;25.17;;
44434;SDS011;30138;20.964;105.830;2023-08-24T09:06:27;27.58;;;24.58;;
44434;SDS011;30138;20.964;105.830;2023-08-24T09:11:35;33.58;;;24.77;;
44434;SDS011;30138;20.964;105.830;2023-08-24T09:16:43;27.57;;;24.60;;
44434;SDS011;30138;20.964;105.830;2023-08-24T09:21:49;28.35;;;24.23;;
44434;SDS011;30138;20.964;105.830;2023-08-24T09:27:04;27.40;;;24.15;;
44434;SDS011;30138;20.964;105.830;2023-08-24T09:32:22;26.83;;;24.08;;
44434;SDS011;30138;20.964;105.830;2023-08-24T09:37:29;27.45;;;24.42;;
44434;SDS011;30138;20.964;105.830;2023-08-24T09:42:40;25.45;;;22.75;;
44434;SDS011;30138;20.964;105.830;2023-08-24T09:47:49;26.13;;;23.30;;
44434;SDS011;30138;20.964;105.830;2023-08-24T09:52:56;26.67;;;23.83;;
44434;SDS011;30138;20.964;105.830;2023-08-24T09:58:07;25.52;;;22.77;;
44434;SDS011;30138;20.964;105.830;2023-08-24T10:03:16;26.00;;;22.13;;
44434;SDS011;30138;20.964;105.830;2023-08-24T10:08:26;25.15;;;22.50;;
44434;SDS011;30138;20.964;105.830;2023-08-24T10:13:39;25.85;;;21.55;;
44434;SDS011;30138;20.964;105.830;2023-08-24T10:18:51;26.67;;;21.63;;
44434;SDS011;30138;20.964;105.830;2023-08-24T10:23:58;26.58;;;21.27;;
44434;SDS011;30138;20.964;105.830;2023-08-24T10:29:08;27.42;;;22.23;;
44434;SDS011;30138;20.964;105.830;2023-08-24T10:34:14;24.27;;;21.17;;
44434;SDS011;30138;20.964;105.830;2023-08-24T10:39:26;23.35;;;20.52;;
44434;SDS011;30138;20.964;105.830;2023-08-24T10:44:38;23.73;;;21.02;;
44434;SDS011;30138;20.964;105.830;2023-08-24T10:49:57;23.20;;;20.67;;
44434;SDS011;30138;20.964;105.830;2023-08-24T10:55:05;23.45;;;20.40;;
44434;SDS011;30138;20.964;105.830;2023-08-24T11:00:28;24.30;;;19.88;;
44434;SDS011;30138;20.964;105.830;2023-08-24T11:05:35;27.17;;;20.10;;
44434;SDS011;30138;20.964;105.830;2023-08-24T11:10:45;25.25;;;19.95;;
44434;SDS011;30138;20.964;105.830;2023-08-24T11:15:53;24.67;;;19.33;;
44434;SDS011;30138;20.964;105.830;2023-08-24T11:21:00;23.33;;;19.15;;
44434;SDS011;30138;20.964;105.830;2023-08-24T11:26:10;22.40;;;19.02;;
44434;SDS011;30138;20.964;105.830;2023-08-24T11:31:19;24.15;;;18.60;;
44434;SDS011;30138;20.964;105.830;2023-08-24T11:36:25;21.92;;;18.10;;
44434;SDS011;30138;20.964;105.830;2023-08-24T11:41:31;24.58;;;18.83;;
44434;SDS011;30138;20.964;105.830;2023-08-24T11:46:39;20.67;;;16.83;;
44434;SDS011;30138;20.964;105.830;2023-08-24T11:51:46;22.48;;;17.70;;
44434;SDS011;30138;20.964;105.830;2023-08-24T11:56:54;21.08;;;17.98;;
44434;SDS011;30138;20.964;105.830;2023-08-24T12:02:02;19.90;;;16.50;;
44434;SDS011;30138;20.964;105.830;2023-08-24T12:07:10;18.38;;;16.48;;
44434;SDS011;30138;20.964;105.830;2023-08-24T12:12:16;20.48;;;16.30;;
44434;SDS011;30138;20.964;105.830;2023-08-24T12:17:24;21.13;;;16.90;;
44434;SDS011;30138;20.964;105.830;2023-08-24T12:22:30;19.88;;;16.15;;
44434;SDS011;30138;20.964;105.830;2023-08-24T12:27:40;18.45;;;15.65;;
44434;SDS011;30138;20.964;105.830;2023-08-24T12:32:48;19.70;;;15.52;;
44434;SDS011;30138;20.964;105.830;2023-08-24T12:37:54;19.52;;;15.80;;
44434;SDS011;30138;20.964;105.830;2023-08-24T12:43:01;21.95;;;15.90;;
44434;SDS011;30138;20.964;105.830;2023-08-24T12:48:10;17.38;;;15.48;;
44434;SDS011;30138;20.964;105.830;2023-08-24T12:53:16;19.25;;;16.23;;
44434;SDS011;30138;20.964;105.830;2023-08-24T12:58:23;19.20;;;15.98;;
44434;SDS011;30138;20.964;105.830;2023-08-24T13:03:32;22.65;;;15.77;;
44434;SDS011;30138;20.964;105.830;2023-08-24T13:08:41;20.10;;;15.93;;
44434;SDS011;30138;20.964;105.830;2023-08-24T13:13:47;21.15;;;15.13;;
44434;SDS011;30138;20.964;105.830;2023-08-24T13:18:56;21.30;;;15.40;;
44434;SDS011;30138;20.964;105.830;2023-08-24T13:24:07;19.30;;;14.90;;
44434;SDS011;30138;20.964;105.830;2023-08-24T13:29:30;20.42;;;15.70;;
44434;SDS011;30138;20.964;105.830;2023-08-24T13:34:40;19.15;;;14.75;;
44434;SDS011;30138;20.964;105.830;2023-08-24T13:39:46;20.08;;;15.25;;
44434;SDS011;30138;20.964;105.830;2023-08-24T13:44:52;19.33;;;15.27;;
44434;SDS011;30138;20.964;105.830;2023-08-24T13:50:00;17.58;;;14.63;;
44434;SDS011;30138;20.964;105.830;2023-08-24T13:55:07;17.00;;;14.52;;
44434;SDS011;30138;20.964;105.830;2023-08-24T14:00:14;17.10;;;14.52;;
44434;SDS011;30138;20.964;105.830;2023-08-24T14:05:23;18.27;;;13.90;;
44434;SDS011;30138;20.964;105.830;2023-08-24T14:10:30;18.25;;;14.73;;
44434;SDS011;30138;20.964;105.830;2023-08-24T14:15:36;21.55;;;15.13;;
44434;SDS011;30138;20.964;105.830;2023-08-24T14:20:46;22.25;;;15.65;;
44434;SDS011;30138;20.964;105.830;2023-08-24T14:25:52;18.52;;;14.95;;
44434;SDS011;30138;20.964;105.830;2023-08-24T14:30:59;22.45;;;14.60;;
44434;SDS011;30138;20.964;105.830;2023-08-24T14:36:07;20.58;;;15.02;;
44434;SDS011;30138;20.964;105.830;2023-08-24T14:41:15;22.35;;;15.70;;
44434;SDS011;30138;20.964;105.830;2023-08-24T14:46:23;22.10;;;15.07;;
44434;SDS011;30138;20.964;105.830;2023-08-24T14:51:31;24.52;;;15.52;;
44434;SDS011;30138;20.964;105.830;2023-08-24T14:56:37;23.52;;;15.18;;
44434;SDS011;30138;20.964;105.830;2023-08-24T15:01:43;24.50;;;15.15;;
44434;SDS011;30138;20.964;105.830;2023-08-24T15:06:54;23.45;;;15.60;;
44434;SDS011;30138;20.964;105.830;2023-08-24T15:12:02;26.13;;;16.90;;
44434;SDS011;30138;20.964;105.830;2023-08-24T15:17:09;27.42;;;16.40;;
44434;SDS011;30138;20.964;105.830;2023-08-24T15:22:16;33.88;;;17.17;;
44434;SDS011;30138;20.964;105.830;2023-08-24T15:27:22;30.70;;;18.08;;
44434;SDS011;30138;20.964;105.830;2023-08-24T15:32:28;29.60;;;17.20;;
44434;SDS011;30138;20.964;105.830;2023-08-24T15:37:36;30.35;;;17.67;;
44434;SDS011;30138;20.964;105.830;2023-08-24T15:42:42;27.10;;;16.85;;
44434;SDS011;30138;20.964;105.830;2023-08-24T15:47:49;31.23;;;18.40;;
44434;SDS011;30138;20.964;105.830;2023-08-24T15:52:58;31.25;;;19.25;;
44434;SDS011;30138;20.964;105.830;2023-08-24T15:58:04;33.42;;;19.88;;
44434;SDS011;30138;20.964;105.830;2023-08-24T16:03:11;30.02;;;20.15;;
44434;SDS011;30138;20.964;105.830;2023-08-24T16:08:20;32.55;;;20.33;;
44434;SDS011;30138;20.964;105.830;2023-08-24T16:13:26;33.13;;;20.63;;
44434;SDS011;30138;20.964;105.830;2023-08-24T16:18:32;34.85;;;20.52;;
44434;SDS011;30138;20.964;105.830;2023-08-24T16:23:40;31.63;;;21.92;;
44434;SDS011;30138;20.964;105.830;2023-08-24T16:28:47;36.47;;;22.58;;
44434;SDS011;30138;20.964;105.830;2023-08-24T16:33:54;36.70;;;22.98;;
44434;SDS011;30138;20.964;105.830;2023-08-24T16:39:02;43.15;;;23.17;;
44434;SDS011;30138;20.964;105.830;2023-08-24T16:44:11;36.58;;;22.20;;
44434;SDS011;30138;20.964;105.830;2023-08-24T16:49:17;34.60;;;22.15;;
44434;SDS011;30138;20.964;105.830;2023-08-24T16:54:25;47.42;;;23.35;;
44434;SDS011;30138;20.964;105.830;2023-08-24T16:59:32;39.83;;;24.17;;
44434;SDS011;30138;20.964;105.830;2023-08-24T17:04:38;30.27;;;21.60;;
44434;SDS011;30138;20.964;105.830;2023-08-24T17:09:47;28.55;;;20.15;;
44434;SDS011;30138;20.964;105.830;2023-08-24T17:14:52;21.55;;;17.88;;
44434;SDS011;30138;20.964;105.830;2023-08-24T17:19:59;27.70;;;16.00;;
44434;SDS011;30138;20.964;105.830;2023-08-24T17:25:08;21.63;;;14.77;;
44434;SDS011;30138;20.964;105.830;2023-08-24T17:30:14;20.15;;;13.63;;
44434;SDS011;30138;20.964;105.830;2023-08-24T17:35:20;17.77;;;13.50;;
44434;SDS011;30138;20.964;105.830;2023-08-24T17:40:30;17.38;;;12.45;;
44434;SDS011;30138;20.964;105.830;2023-08-24T17:45:36;17.23;;;12.70;;
44434;SDS011;30138;20.964;105.830;2023-08-24T17:50:50;14.73;;;10.70;;
44434;SDS011;30138;20.964;105.830;2023-08-24T17:55:59;14.45;;;10.75;;
44434;SDS011;30138;20.964;105.830;2023-08-24T18:01:04;12.40;;;9.90;;
44434;SDS011;30138;20.964;105.830;2023-08-24T18:06:12;13.32;;;9.55;;
44434;SDS011;30138;20.964;105.830;2023-08-24T18:11:19;12.32;;;9.15;;
44434;SDS011;30138;20.964;105.830;2023-08-24T18:16:26;13.05;;;8.60;;
44434;SDS011;30138;20.964;105.830;2023-08-24T18:21:31;11.98;;;8.50;;
44434;SDS011;30138;20.964;105.830;2023-08-24T18:26:40;10.65;;;8.10;;
44434;SDS011;30138;20.964;105.830;2023-08-24T18:31:46;9.68;;;7.85;;
44434;SDS011;30138;20.964;105.830;2023-08-24T18:36:52;11.85;;;8.35;;
44434;SDS011;30138;20.964;105.830;2023-08-24T18:42:00;12.00;;;7.82;;
44434;SDS011;30138;20.964;105.830;2023-08-24T18:47:06;9.38;;;7.78;;
44434;SDS011;30138;20.964;105.830;2023-08-24T18:52:12;12.70;;;7.63;;
44434;SDS011;30138;20.964;105.830;2023-08-24T18:57:20;10.15;;;7.47;;
44434;SDS011;30138;20.964;105.830;2023-08-24T19:02:27;9.57;;;7.72;;
44434;SDS011;30138;20.964;105.830;2023-08-24T19:07:34;10.05;;;7.20;;
44434;SDS011;30138;20.964;105.830;2023-08-24T19:12:42;10.85;;;7.78;;
44434;SDS011;30138;20.964;105.830;2023-08-24T19:17:49;8.57;;;6.63;;
44434;SDS011;30138;20.964;105.830;2023-08-24T19:22:56;10.10;;;6.78;;
44434;SDS011;30138;20.964;105.830;2023-08-24T19:28:04;8.40;;;6.28;;
44434;SDS011;30138;20.964;105.830;2023-08-24T19:33:11;8.50;;;6.47;;
44434;SDS011;30138;20.964;105.830;2023-08-24T19:38:17;9.73;;;6.18;;
44434;SDS011;30138;20.964;105.830;2023-08-24T19:43:26;9.27;;;6.05;;
44434;SDS011;30138;20.964;105.830;2023-08-24T19:48:32;6.85;;;5.57;;
44434;SDS011;30138;20.964;105.830;2023-08-24T19:53:39;7.30;;;6.00;;
44434;SDS011;30138;20.964;105.830;2023-08-24T19:58:46;7.53;;;5.70;;
44434;SDS011;30138;20.964;105.830;2023-08-24T20:03:52;8.95;;;5.80;;
44434;SDS011;30138;20.964;105.830;2023-08-24T20:08:58;7.05;;;5.43;;
44434;SDS011;30138;20.964;105.830;2023-08-24T20:14:09;7.10;;;5.35;;
44434;SDS011;30138;20.964;105.830;2023-08-24T20:19:20;8.77;;;5.40;;
44434;SDS011;30138;20.964;105.830;2023-08-24T20:24:27;8.40;;;5.57;;
44434;SDS011;30138;20.964;105.830;2023-08-24T20:29:35;6.07;;;4.70;;
44434;SDS011;30138;20.964;105.830;2023-08-24T20:34:42;5.30;;;4.75;;
44434;SDS011;30138;20.964;105.830;2023-08-24T20:39:48;5.80;;;4.85;;
44434;SDS011;30138;20.964;105.830;2023-08-24T20:44:57;4.85;;;4.35;;
44434;SDS011;30138;20.964;105.830;2023-08-24T20:50:03;5.30;;;4.80;;
44434;SDS011;30138;20.964;105.830;2023-08-24T20:55:11;5.25;;;4.40;;
44434;SDS011;30138;20.964;105.830;2023-08-24T21:00:20;5.00;;;4.50;;
44434;SDS011;30138;20.964;105.830;2023-08-24T21:05:26;4.63;;;4.20;;
44434;SDS011;30138;20.964;105.830;2023-08-24T21:10:32;5.05;;;4.30;;
44434;SDS011;30138;20.964;105.830;2023-08-24T21:15:41;5.00;;;4.30;;
44434;SDS011;30138;20.964;105.830;2023-08-24T21:20:55;5.60;;;4.13;;
44434;SDS011;30138;20.964;105.830;2023-08-24T21:26:01;4.30;;;3.90;;
44434;SDS011;30138;20.964;105.830;2023-08-24T21:31:09;4.32;;;3.97;;
44434;SDS011;30138;20.964;105.830;2023-08-24T21:36:17;4.05;;;3.67;;
44434;SDS011;30138;20.964;105.830;2023-08-24T21:41:23;4.70;;;4.25;;
44434;SDS011;30138;20.964;105.830;2023-08-24T21:46:31;3.53;;;3.22;;
44434;SDS011;30138;20.964;105.830;2023-08-24T21:51:38;4.13;;;3.60;;
44434;SDS011;30138;20.964;105.830;2023-08-24T21:56:44;4.10;;;3.70;;
44434;SDS011;30138;20.964;105.830;2023-08-24T22:01:53;3.78;;;3.22;;
44434;SDS011;30138;20.964;105.830;2023-08-24T22:07:02;3.90;;;3.60;;
44434;SDS011;30138;20.964;105.830;2023-08-24T22:12:09;3.90;;;3.50;;
44434;SDS011;30138;20.964;105.830;2023-08-24T22:17:18;3.95;;;3.28;;
44434;SDS011;30138;20.964;105.830;2023-08-24T22:22:24;3.38;;;3.08;;
44434;SDS011;30138;20.964;105.830;2023-08-24T22:27:29;4.55;;;3.03;;
44434;SDS011;30138;20.964;105.830;2023-08-24T22:32:38;2.85;;;2.60;;
44434;SDS011;30138;20.964;105.830;2023-08-24T22:37:44;3.35;;;3.05;;
44434;SDS011;30138;20.964;105.830;2023-08-24T22:42:50;3.38;;;3.08;;
44434;SDS011;30138;20.964;105.830;2023-08-24T22:47:58;3.40;;;3.10;;
44434;SDS011;30138;20.964;105.830;2023-08-24T22:53:05;3.40;;;3.10;;
44434;SDS011;30138;20.964;105.830;2023-08-24T22:58:13;3.58;;;3.20;;
44434;SDS011;30138;20.964;105.830;2023-08-24T23:03:20;3.35;;;2.90;;
44434;SDS011;30138;20.964;105.830;2023-08-24T23:08:26;3.67;;;3.33;;
44434;SDS011;30138;20.964;105.830;2023-08-24T23:13:33;3.30;;;3.00;;
44434;SDS011;30138;20.964;105.830;2023-08-24T23:18:41;3.35;;;2.80;;
44434;SDS011;30138;20.964;105.830;2023-08-24T23:23:48;3.58;;;3.15;;
44434;SDS011;30138;20.964;105.830;2023-08-24T23:28:54;3.13;;;2.90;;
44434;SDS011;30138;20.964;105.830;2023-08-24T23:34:03;3.42;;;2.85;;
44434;SDS011;30138;20.964;105.830;2023-08-24T23:39:10;3.70;;;3.40;;
44434;SDS011;30138;20.964;105.830;2023-08-24T23:44:17;3.28;;;2.92;;
44434;SDS011;30138;20.964;105.830;2023-08-24T23:49:26;3.55;;;2.95;;
44434;SDS011;30138;20.964;105.830;2023-08-24T23:54:32;3.97;;;3.58;;
44434;SDS011;30138;20.964;105.830;2023-08-24T23:59:39;3.20;;;2.90;;
